sensor_id;sensor_type;location;lat;lon;timestamp;temperature;humidity
32506;DHT22;18955;51.224;8.482;2024-03-17T00:00:03;8.90;77.60
32506;DHT22;18955;51.224;8.482;2024-03-17T00:02:31;8.70;78.10
32506;DHT22;18955;51.224;8.482;2024-03-17T00:04:57;8.70;78.50
32506;DHT22;18955;51.224;8.482;2024-03-17T00:07:23;9.20;76.80
32506;DHT22;18955;51.224;8.482;2024-03-17T00:09:49;9.10;76.60
32506;DHT22;18955;51.224;8.482;2024-03-17T00:12:16;9.00;77.20
32506;DHT22;18955;51.224;8.482;2024-03-17T00:14:42;8.80;77.80
32506;DHT22;18955;51.224;8.482;2024-03-17T00:17:08;8.60;78.40
32506;DHT22;18955;51.224;8.482;2024-03-17T00:19:35;9.00;77.30
32506;DHT22;18955;51.224;8.482;2024-03-17T00:22:02;9.10;76.60
32506;DHT22;18955;51.224;8.482;2024-03-17T00:24:29;9.00;77.00
32506;DHT22;18955;51.224;8.482;2024-03-17T00:27:03;8.80;77.80
32506;DHT22;18955;51.224;8.482;2024-03-17T00:29:29;8.60;78.20
32506;DHT22;18955;51.224;8.482;2024-03-17T00:31:55;8.90;77.60
32506;DHT22;18955;51.224;8.482;2024-03-17T00:34:23;9.10;76.50
32506;DHT22;18955;51.224;8.482;2024-03-17T00:36:49;8.90;76.70
32506;DHT22;18955;51.224;8.482;2024-03-17T00:39:15;8.80;77.40
32506;DHT22;18955;51.224;8.482;2024-03-17T00:41:43;8.60;77.80
32506;DHT22;18955;51.224;8.482;2024-03-17T00:44:09;8.80;77.80
32506;DHT22;18955;51.224;8.482;2024-03-17T00:46:36;9.10;76.30
32506;DHT22;18955;51.224;8.482;2024-03-17T00:49:02;9.00;76.40
32506;DHT22;18955;51.224;8.482;2024-03-17T00:51:28;8.70;77.10
32506;DHT22;18955;51.224;8.482;2024-03-17T00:53:54;8.50;77.50
32506;DHT22;18955;51.224;8.482;2024-03-17T00:56:22;8.60;77.70
32506;DHT22;18955;51.224;8.482;2024-03-17T00:58:48;9.00;76.10
32506;DHT22;18955;51.224;8.482;2024-03-17T01:01:17;8.90;76.10
32506;DHT22;18955;51.224;8.482;2024-03-17T01:03:46;8.70;76.90
32506;DHT22;18955;51.224;8.482;2024-03-17T01:06:12;8.50;77.30
32506;DHT22;18955;51.224;8.482;2024-03-17T01:08:39;8.50;77.40
32506;DHT22;18955;51.224;8.482;2024-03-17T01:11:06;8.90;75.90
32506;DHT22;18955;51.224;8.482;2024-03-17T01:13:35;8.90;75.90
32506;DHT22;18955;51.224;8.482;2024-03-17T01:16:07;8.60;76.50
32506;DHT22;18955;51.224;8.482;2024-03-17T01:18:33;8.50;77.20
32506;DHT22;18955;51.224;8.482;2024-03-17T01:21:03;8.50;77.30
32506;DHT22;18955;51.224;8.482;2024-03-17T01:23:29;8.90;75.90
32506;DHT22;18955;51.224;8.482;2024-03-17T01:25:55;8.80;75.80
32506;DHT22;18955;51.224;8.482;2024-03-17T01:28:22;8.60;76.50
32506;DHT22;18955;51.224;8.482;2024-03-17T01:30:48;8.40;77.20
32506;DHT22;18955;51.224;8.482;2024-03-17T01:33:14;8.40;77.20
32506;DHT22;18955;51.224;8.482;2024-03-17T01:35:41;8.80;75.50
32506;DHT22;18955;51.224;8.482;2024-03-17T01:38:07;8.80;75.60
32506;DHT22;18955;51.224;8.482;2024-03-17T01:40:36;8.50;76.30
32506;DHT22;18955;51.224;8.482;2024-03-17T01:43:02;8.40;76.90
32506;DHT22;18955;51.224;8.482;2024-03-17T01:45:35;8.40;76.90
32506;DHT22;18955;51.224;8.482;2024-03-17T01:48:02;8.80;75.50
32506;DHT22;18955;51.224;8.482;2024-03-17T01:50:36;8.70;75.40
32506;DHT22;18955;51.224;8.482;2024-03-17T01:53:05;8.50;76.20
32506;DHT22;18955;51.224;8.482;2024-03-17T01:55:33;8.30;76.90
32506;DHT22;18955;51.224;8.482;2024-03-17T01:58:02;8.40;76.50
32506;DHT22;18955;51.224;8.482;2024-03-17T02:00:29;8.70;75.30
32506;DHT22;18955;51.224;8.482;2024-03-17T02:02:57;8.60;75.60
32506;DHT22;18955;51.224;8.482;2024-03-17T02:05:23;8.40;76.40
32506;DHT22;18955;51.224;8.482;2024-03-17T02:07:50;8.20;77.30
32506;DHT22;18955;51.224;8.482;2024-03-17T02:10:16;8.50;75.90
32506;DHT22;18955;51.224;8.482;2024-03-17T02:12:42;8.70;75.20
32506;DHT22;18955;51.224;8.482;2024-03-17T02:15:08;8.50;75.30
32506;DHT22;18955;51.224;8.482;2024-03-17T02:17:35;8.30;76.20
32506;DHT22;18955;51.224;8.482;2024-03-17T02:20:01;8.20;76.50
32506;DHT22;18955;51.224;8.482;2024-03-17T02:22:28;8.60;75.30
32506;DHT22;18955;51.224;8.482;2024-03-17T02:24:54;8.60;74.90
32506;DHT22;18955;51.224;8.482;2024-03-17T02:27:20;8.40;75.50
32506;DHT22;18955;51.224;8.482;2024-03-17T02:29:46;8.20;76.10
32506;DHT22;18955;51.224;8.482;2024-03-17T02:32:13;8.10;76.30
32506;DHT22;18955;51.224;8.482;2024-03-17T02:34:39;8.50;75.10
32506;DHT22;18955;51.224;8.482;2024-03-17T02:37:05;8.50;74.90
32506;DHT22;18955;51.224;8.482;2024-03-17T02:39:35;8.30;75.60
32506;DHT22;18955;51.224;8.482;2024-03-17T02:42:06;8.10;76.10
32506;DHT22;18955;51.224;8.482;2024-03-17T02:44:33;8.20;75.90
32506;DHT22;18955;51.224;8.482;2024-03-17T02:47:01;8.50;74.70
32506;DHT22;18955;51.224;8.482;2024-03-17T02:49:28;8.40;74.80
32506;DHT22;18955;51.224;8.482;2024-03-17T02:52:01;8.20;75.50
32506;DHT22;18955;51.224;8.482;2024-03-17T02:54:27;8.00;76.00
32506;DHT22;18955;51.224;8.482;2024-03-17T02:56:54;8.40;75.00
32506;DHT22;18955;51.224;8.482;2024-03-17T02:59:20;8.50;74.50
32506;DHT22;18955;51.224;8.482;2024-03-17T03:01:46;8.30;74.90
32506;DHT22;18955;51.224;8.482;2024-03-17T03:04:12;8.10;75.70
32506;DHT22;18955;51.224;8.482;2024-03-17T03:06:38;8.00;75.90
32506;DHT22;18955;51.224;8.482;2024-03-17T03:09:05;8.40;74.50
32506;DHT22;18955;51.224;8.482;2024-03-17T03:11:39;8.30;74.40
32506;DHT22;18955;51.224;8.482;2024-03-17T03:14:06;8.10;75.10
32506;DHT22;18955;51.224;8.482;2024-03-17T03:16:33;8.00;75.60
32506;DHT22;18955;51.224;8.482;2024-03-17T03:18:59;8.20;75.20
32506;DHT22;18955;51.224;8.482;2024-03-17T03:21:26;8.40;74.20
32506;DHT22;18955;51.224;8.482;2024-03-17T03:23:52;8.20;74.60
32506;DHT22;18955;51.224;8.482;2024-03-17T03:26:18;8.00;75.20
32506;DHT22;18955;51.224;8.482;2024-03-17T03:28:44;7.90;75.80
32506;DHT22;18955;51.224;8.482;2024-03-17T03:31:11;8.30;74.50
32506;DHT22;18955;51.224;8.482;2024-03-17T03:33:42;8.30;74.30
32506;DHT22;18955;51.224;8.482;2024-03-17T03:36:13;8.10;74.90
32506;DHT22;18955;51.224;8.482;2024-03-17T03:38:40;7.90;75.50
32506;DHT22;18955;51.224;8.482;2024-03-17T03:41:07;8.10;75.30
32506;DHT22;18955;51.224;8.482;2024-03-17T03:43:33;8.30;74.30
32506;DHT22;18955;51.224;8.482;2024-03-17T03:46:01;8.10;74.30
32506;DHT22;18955;51.224;8.482;2024-03-17T03:48:27;7.90;75.10
32506;DHT22;18955;51.224;8.482;2024-03-17T03:50:53;7.80;75.50
32506;DHT22;18955;51.224;8.482;2024-03-17T03:53:20;8.20;74.40
32506;DHT22;18955;51.224;8.482;2024-03-17T03:55:47;8.20;74.10
32506;DHT22;18955;51.224;8.482;2024-03-17T03:58:15;8.00;74.80
32506;DHT22;18955;51.224;8.482;2024-03-17T04:00:41;7.70;75.40
32506;DHT22;18955;51.224;8.482;2024-03-17T04:03:07;8.00;74.70
32506;DHT22;18955;51.224;8.482;2024-03-17T04:05:34;8.20;73.90
32506;DHT22;18955;51.224;8.482;2024-03-17T04:08:00;8.00;74.20
32506;DHT22;18955;51.224;8.482;2024-03-17T04:10:26;7.80;75.00
32506;DHT22;18955;51.224;8.482;2024-03-17T04:12:53;7.80;75.20
32506;DHT22;18955;51.224;8.482;2024-03-17T04:15:19;8.20;73.80
32506;DHT22;18955;51.224;8.482;2024-03-17T04:17:46;8.10;73.70
32506;DHT22;18955;51.224;8.482;2024-03-17T04:20:13;7.90;74.50
32506;DHT22;18955;51.224;8.482;2024-03-17T04:22:40;7.60;75.20
32506;DHT22;18955;51.224;8.482;2024-03-17T04:25:07;8.00;74.30
32506;DHT22;18955;51.224;8.482;2024-03-17T04:27:35;8.10;73.70
32506;DHT22;18955;51.224;8.482;2024-03-17T04:30:01;7.90;74.10
32506;DHT22;18955;51.224;8.482;2024-03-17T04:32:32;7.70;74.90
32506;DHT22;18955;51.224;8.482;2024-03-17T04:34:59;7.80;75.10
32506;DHT22;18955;51.224;8.482;2024-03-17T04:37:26;8.10;73.70
32506;DHT22;18955;51.224;8.482;2024-03-17T04:39:52;7.90;73.70
32506;DHT22;18955;51.224;8.482;2024-03-17T04:42:18;7.70;74.50
32506;DHT22;18955;51.224;8.482;2024-03-17T04:44:45;7.60;75.10
32506;DHT22;18955;51.224;8.482;2024-03-17T04:47:12;8.10;74.00
32506;DHT22;18955;51.224;8.482;2024-03-17T04:49:43;8.00;73.60
32506;DHT22;18955;51.224;8.482;2024-03-17T04:52:12;7.70;74.20
32506;DHT22;18955;51.224;8.482;2024-03-17T04:54:39;7.50;75.10
32506;DHT22;18955;51.224;8.482;2024-03-17T04:57:09;7.80;74.30
32506;DHT22;18955;51.224;8.482;2024-03-17T04:59:35;8.00;73.50
32506;DHT22;18955;51.224;8.482;2024-03-17T05:02:01;7.80;73.90
32506;DHT22;18955;51.224;8.482;2024-03-17T05:04:29;7.60;74.70
32506;DHT22;18955;51.224;8.482;2024-03-17T05:06:55;7.60;74.70
32506;DHT22;18955;51.224;8.482;2024-03-17T05:09:21;8.00;73.50
32506;DHT22;18955;51.224;8.482;2024-03-17T05:11:47;7.80;73.50
32506;DHT22;18955;51.224;8.482;2024-03-17T05:14:15;7.60;74.30
32506;DHT22;18955;51.224;8.482;2024-03-17T05:16:41;7.50;74.90
32506;DHT22;18955;51.224;8.482;2024-03-17T05:19:08;8.00;73.70
32506;DHT22;18955;51.224;8.482;2024-03-17T05:21:35;7.90;73.30
32506;DHT22;18955;51.224;8.482;2024-03-17T05:24:02;7.70;74.20
32506;DHT22;18955;51.224;8.482;2024-03-17T05:26:28;7.50;74.70
32506;DHT22;18955;51.224;8.482;2024-03-17T05:28:56;7.80;74.00
32506;DHT22;18955;51.224;8.482;2024-03-17T05:31:22;7.90;73.30
32506;DHT22;18955;51.224;8.482;2024-03-17T05:33:49;7.70;73.80
32506;DHT22;18955;51.224;8.482;2024-03-17T05:36:15;7.50;74.50
32506;DHT22;18955;51.224;8.482;2024-03-17T05:38:42;7.70;74.40
32506;DHT22;18955;51.224;8.482;2024-03-17T05:41:09;7.90;73.20
32506;DHT22;18955;51.224;8.482;2024-03-17T05:43:37;7.70;73.50
32506;DHT22;18955;51.224;8.482;2024-03-17T05:46:11;7.50;74.40
32506;DHT22;18955;51.224;8.482;2024-03-17T05:48:39;7.50;74.50
32506;DHT22;18955;51.224;8.482;2024-03-17T05:51:12;7.80;73.30
32506;DHT22;18955;51.224;8.482;2024-03-17T05:53:39;7.70;73.50
32506;DHT22;18955;51.224;8.482;2024-03-17T05:56:12;7.40;74.30
32506;DHT22;18955;51.224;8.482;2024-03-17T05:58:39;7.40;74.50
32506;DHT22;18955;51.224;8.482;2024-03-17T06:01:06;7.80;73.00
32506;DHT22;18955;51.224;8.482;2024-03-17T06:03:35;7.70;73.00
32506;DHT22;18955;51.224;8.482;2024-03-17T06:06:03;7.50;73.90
32506;DHT22;18955;51.224;8.482;2024-03-17T06:08:29;7.30;74.40
32506;DHT22;18955;51.224;8.482;2024-03-17T06:10:56;7.80;73.30
32506;DHT22;18955;51.224;8.482;2024-03-17T06:13:27;7.70;73.10
32506;DHT22;18955;51.224;8.482;2024-03-17T06:15:54;7.50;73.80
32506;DHT22;18955;51.224;8.482;2024-03-17T06:18:20;7.30;74.40
32506;DHT22;18955;51.224;8.482;2024-03-17T06:20:47;7.70;73.60
32506;DHT22;18955;51.224;8.482;2024-03-17T06:23:15;7.70;73.10
32506;DHT22;18955;51.224;8.482;2024-03-17T06:25:46;7.50;73.70
32506;DHT22;18955;51.224;8.482;2024-03-17T06:28:14;7.30;74.50
32506;DHT22;18955;51.224;8.482;2024-03-17T06:30:44;7.60;73.60
32506;DHT22;18955;51.224;8.482;2024-03-17T06:33:13;7.70;73.00
32506;DHT22;18955;51.224;8.482;2024-03-17T06:35:40;7.50;73.30
32506;DHT22;18955;51.224;8.482;2024-03-17T06:38:06;7.30;74.20
32506;DHT22;18955;51.224;8.482;2024-03-17T06:40:36;7.60;74.00
32506;DHT22;18955;51.224;8.482;2024-03-17T06:43:03;7.70;73.00
32506;DHT22;18955;51.224;8.482;2024-03-17T06:45:29;7.50;73.20
32506;DHT22;18955;51.224;8.482;2024-03-17T06:47:55;7.30;74.00
32506;DHT22;18955;51.224;8.482;2024-03-17T06:50:22;7.40;74.20
32506;DHT22;18955;51.224;8.482;2024-03-17T06:52:48;7.70;72.90
32506;DHT22;18955;51.224;8.482;2024-03-17T06:55:14;7.60;73.10
32506;DHT22;18955;51.224;8.482;2024-03-17T06:57:44;7.40;73.90
32506;DHT22;18955;51.224;8.482;2024-03-17T07:00:14;7.40;74.40
32506;DHT22;18955;51.224;8.482;2024-03-17T07:02:43;7.80;72.90
32506;DHT22;18955;51.224;8.482;2024-03-17T07:05:16;7.60;72.90
32506;DHT22;18955;51.224;8.482;2024-03-17T07:07:43;7.40;73.60
32506;DHT22;18955;51.224;8.482;2024-03-17T07:10:10;7.40;74.40
32506;DHT22;18955;51.224;8.482;2024-03-17T07:12:41;7.80;72.90
32506;DHT22;18955;51.224;8.482;2024-03-17T07:15:08;7.70;72.90
32506;DHT22;18955;51.224;8.482;2024-03-17T07:17:34;7.50;73.60
32506;DHT22;18955;51.224;8.482;2024-03-17T07:20:01;7.40;74.40
32506;DHT22;18955;51.224;8.482;2024-03-17T07:22:27;7.90;73.10
32506;DHT22;18955;51.224;8.482;2024-03-17T07:24:54;7.80;72.80
32506;DHT22;18955;51.224;8.482;2024-03-17T07:27:27;7.60;73.60
32506;DHT22;18955;51.224;8.482;2024-03-17T07:29:53;7.50;74.40
32506;DHT22;18955;51.224;8.482;2024-03-17T07:32:20;7.90;73.70
32506;DHT22;18955;51.224;8.482;2024-03-17T07:34:46;8.10;73.00
32506;DHT22;18955;51.224;8.482;2024-03-17T07:37:12;7.90;73.60
32506;DHT22;18955;51.224;8.482;2024-03-17T07:39:38;7.70;74.50
32506;DHT22;18955;51.224;8.482;2024-03-17T07:42:05;7.80;75.00
32506;DHT22;18955;51.224;8.482;2024-03-17T07:44:32;8.20;73.20
32506;DHT22;18955;51.224;8.482;2024-03-17T07:47:01;8.20;73.60
32506;DHT22;18955;51.224;8.482;2024-03-17T07:49:30;7.90;74.30
32506;DHT22;18955;51.224;8.482;2024-03-17T07:51:57;7.80;75.00
32506;DHT22;18955;51.224;8.482;2024-03-17T07:54:24;8.30;74.10
32506;DHT22;18955;51.224;8.482;2024-03-17T07:56:50;8.30;73.50
32506;DHT22;18955;51.224;8.482;2024-03-17T07:59:17;8.20;74.30
32506;DHT22;18955;51.224;8.482;2024-03-17T08:01:44;8.00;74.90
32506;DHT22;18955;51.224;8.482;2024-03-17T08:04:11;8.00;75.40
32506;DHT22;18955;51.224;8.482;2024-03-17T08:06:41;8.50;73.80
32506;DHT22;18955;51.224;8.482;2024-03-17T08:09:08;8.40;74.10
32506;DHT22;18955;51.224;8.482;2024-03-17T08:11:35;8.20;74.90
32506;DHT22;18955;51.224;8.482;2024-03-17T08:14:02;8.10;75.60
32506;DHT22;18955;51.224;8.482;2024-03-17T08:16:29;8.30;75.50
32506;DHT22;18955;51.224;8.482;2024-03-17T08:18:56;8.60;73.90
32506;DHT22;18955;51.224;8.482;2024-03-17T08:21:22;8.50;74.50
32506;DHT22;18955;51.224;8.482;2024-03-17T08:23:49;8.30;75.30
32506;DHT22;18955;51.224;8.482;2024-03-17T08:26:15;8.10;75.80
32506;DHT22;18955;51.224;8.482;2024-03-17T08:28:42;8.50;74.90
32506;DHT22;18955;51.224;8.482;2024-03-17T08:31:08;8.70;74.20
32506;DHT22;18955;51.224;8.482;2024-03-17T08:33:34;8.50;75.00
32506;DHT22;18955;51.224;8.482;2024-03-17T08:36:04;8.30;75.70
32506;DHT22;18955;51.224;8.482;2024-03-17T08:38:31;8.20;76.10
32506;DHT22;18955;51.224;8.482;2024-03-17T08:41:02;8.70;74.70
32506;DHT22;18955;51.224;8.482;2024-03-17T08:43:29;8.70;74.30
32506;DHT22;18955;51.224;8.482;2024-03-17T08:45:56;8.50;75.30
32506;DHT22;18955;51.224;8.482;2024-03-17T08:48:25;8.40;76.00
32506;DHT22;18955;51.224;8.482;2024-03-17T08:50:53;8.30;76.30
32506;DHT22;18955;51.224;8.482;2024-03-17T08:53:20;8.80;74.70
32506;DHT22;18955;51.224;8.482;2024-03-17T08:55:46;8.70;74.60
32506;DHT22;18955;51.224;8.482;2024-03-17T08:58:13;8.60;75.30
32506;DHT22;18955;51.224;8.482;2024-03-17T09:00:40;8.40;76.10
32506;DHT22;18955;51.224;8.482;2024-03-17T09:03:07;8.30;76.40
32506;DHT22;18955;51.224;8.482;2024-03-17T09:05:42;8.80;74.80
32506;DHT22;18955;51.224;8.482;2024-03-17T09:08:20;8.80;74.80
32506;DHT22;18955;51.224;8.482;2024-03-17T09:10:49;8.60;75.80
32506;DHT22;18955;51.224;8.482;2024-03-17T09:13:17;8.40;76.30
32506;DHT22;18955;51.224;8.482;2024-03-17T09:15:51;8.50;76.50
32506;DHT22;18955;51.224;8.482;2024-03-17T09:18:17;9.00;74.50
32506;DHT22;18955;51.224;8.482;2024-03-17T09:20:44;8.90;75.00
32506;DHT22;18955;51.224;8.482;2024-03-17T09:23:10;8.70;75.70
32506;DHT22;18955;51.224;8.482;2024-03-17T09:25:36;8.50;76.40
32506;DHT22;18955;51.224;8.482;2024-03-17T09:28:03;8.50;76.60
32506;DHT22;18955;51.224;8.482;2024-03-17T09:30:29;9.00;74.70
32506;DHT22;18955;51.224;8.482;2024-03-17T09:32:55;8.90;74.90
32506;DHT22;18955;51.224;8.482;2024-03-17T09:35:22;8.70;75.80
32506;DHT22;18955;51.224;8.482;2024-03-17T09:37:48;8.60;76.40
32506;DHT22;18955;51.224;8.482;2024-03-17T09:40:14;8.60;76.70
32506;DHT22;18955;51.224;8.482;2024-03-17T09:42:41;9.10;74.80
32506;DHT22;18955;51.224;8.482;2024-03-17T09:45:10;9.00;74.80
32506;DHT22;18955;51.224;8.482;2024-03-17T09:47:37;8.80;75.80
32506;DHT22;18955;51.224;8.482;2024-03-17T09:50:03;8.70;76.50
32506;DHT22;18955;51.224;8.482;2024-03-17T09:52:31;8.60;76.90
32506;DHT22;18955;51.224;8.482;2024-03-17T09:55:16;9.10;75.10
32506;DHT22;18955;51.224;8.482;2024-03-17T09:57:45;9.10;75.00
32506;DHT22;18955;51.224;8.482;2024-03-17T10:00:15;8.90;75.80
32506;DHT22;18955;51.224;8.482;2024-03-17T10:02:46;8.70;76.40
32506;DHT22;18955;51.224;8.482;2024-03-17T10:07:49;9.20;75.10
32506;DHT22;18955;51.224;8.482;2024-03-17T10:10:17;9.20;74.90
32506;DHT22;18955;51.224;8.482;2024-03-17T10:12:50;9.00;75.60
32506;DHT22;18955;51.224;8.482;2024-03-17T10:15:18;8.90;76.40
32506;DHT22;18955;51.224;8.482;2024-03-17T10:17:44;8.70;76.80
32506;DHT22;18955;51.224;8.482;2024-03-17T10:20:18;9.20;75.60
32506;DHT22;18955;51.224;8.482;2024-03-17T10:25:25;9.20;75.40
32506;DHT22;18955;51.224;8.482;2024-03-17T10:27:52;9.00;76.10
32506;DHT22;18955;51.224;8.482;2024-03-17T10:30:19;8.90;76.70
32506;DHT22;18955;51.224;8.482;2024-03-17T10:32:57;9.10;76.60
32506;DHT22;18955;51.224;8.482;2024-03-17T10:35:44;9.50;74.80
32506;DHT22;18955;51.224;8.482;2024-03-17T10:38:12;9.40;75.40
32506;DHT22;18955;51.224;8.482;2024-03-17T10:40:39;9.20;76.20
32506;DHT22;18955;51.224;8.482;2024-03-17T10:43:05;9.10;76.70
32506;DHT22;18955;51.224;8.482;2024-03-17T10:45:33;9.10;77.10
32506;DHT22;18955;51.224;8.482;2024-03-17T10:48:08;9.60;75.20
32506;DHT22;18955;51.224;8.482;2024-03-17T10:50:39;9.60;75.30
32506;DHT22;18955;51.224;8.482;2024-03-17T10:53:06;9.40;76.10
32506;DHT22;18955;51.224;8.482;2024-03-17T10:55:43;9.20;76.70
32506;DHT22;18955;51.224;8.482;2024-03-17T10:58:27;9.10;77.20
32506;DHT22;18955;51.224;8.482;2024-03-17T11:00:58;9.60;75.90
32506;DHT22;18955;51.224;8.482;2024-03-17T11:03:25;9.70;75.30
32506;DHT22;18955;51.224;8.482;2024-03-17T11:05:52;9.50;75.80
32506;DHT22;18955;51.224;8.482;2024-03-17T11:08:19;9.40;76.60
32506;DHT22;18955;51.224;8.482;2024-03-17T11:10:49;9.30;77.20
32506;DHT22;18955;51.224;8.482;2024-03-17T11:13:26;9.30;77.40
32506;DHT22;18955;51.224;8.482;2024-03-17T11:15:54;9.70;75.70
32506;DHT22;18955;51.224;8.482;2024-03-17T11:21:03;9.50;76.60
32506;DHT22;18955;51.224;8.482;2024-03-17T11:23:41;9.40;77.20
32506;DHT22;18955;51.224;8.482;2024-03-17T11:26:08;9.30;77.70
32506;DHT22;18955;51.224;8.482;2024-03-17T11:31:45;9.90;75.70
32506;DHT22;18955;51.224;8.482;2024-03-17T11:34:32;9.70;76.50
32506;DHT22;18955;51.224;8.482;2024-03-17T11:37:00;9.50;77.20
32506;DHT22;18955;51.224;8.482;2024-03-17T11:42:22;9.70;77.10
32506;DHT22;18955;51.224;8.482;2024-03-17T11:44:57;10.00;75.70
32506;DHT22;18955;51.224;8.482;2024-03-17T11:47:35;9.80;76.30
32506;DHT22;18955;51.224;8.482;2024-03-17T11:50:06;9.70;77.00
32506;DHT22;18955;51.224;8.482;2024-03-17T11:52:34;9.50;77.60
32506;DHT22;18955;51.224;8.482;2024-03-17T11:55:00;9.40;77.90
32506;DHT22;18955;51.224;8.482;2024-03-17T11:57:27;9.90;76.50
32506;DHT22;18955;51.224;8.482;2024-03-17T11:59:55;10.00;75.70
32506;DHT22;18955;51.224;8.482;2024-03-17T12:02:31;9.80;76.30
32506;DHT22;18955;51.224;8.482;2024-03-17T12:04:59;9.70;77.30
32506;DHT22;18955;51.224;8.482;2024-03-17T12:07:26;9.60;77.70
32506;DHT22;18955;51.224;8.482;2024-03-17T12:09:54;9.50;78.00
32506;DHT22;18955;51.224;8.482;2024-03-17T12:12:24;10.00;76.50
32506;DHT22;18955;51.224;8.482;2024-03-17T12:14:52;10.10;75.80
32506;DHT22;18955;51.224;8.482;2024-03-17T12:17:22;10.00;76.60
32506;DHT22;18955;51.224;8.482;2024-03-17T12:19:49;9.80;77.30
32506;DHT22;18955;51.224;8.482;2024-03-17T12:22:17;9.70;77.70
32506;DHT22;18955;51.224;8.482;2024-03-17T12:24:44;9.60;78.20
32506;DHT22;18955;51.224;8.482;2024-03-17T12:27:18;10.00;76.90
32506;DHT22;18955;51.224;8.482;2024-03-17T12:29:44;10.20;76.00
32506;DHT22;18955;51.224;8.482;2024-03-17T12:32:18;10.00;76.60
32506;DHT22;18955;51.224;8.482;2024-03-17T12:34:46;9.90;77.30
32506;DHT22;18955;51.224;8.482;2024-03-17T12:37:20;9.70;77.80
32506;DHT22;18955;51.224;8.482;2024-03-17T12:39:47;9.60;78.20
32506;DHT22;18955;51.224;8.482;2024-03-17T12:42:14;10.00;77.10
32506;DHT22;18955;51.224;8.482;2024-03-17T12:44:47;10.20;76.30
32506;DHT22;18955;51.224;8.482;2024-03-17T12:47:25;10.10;76.90
32506;DHT22;18955;51.224;8.482;2024-03-17T12:49:55;9.90;77.30
32506;DHT22;18955;51.224;8.482;2024-03-17T12:57:52;10.20;76.90
32506;DHT22;18955;51.224;8.482;2024-03-17T13:00:37;10.30;76.00
32506;DHT22;18955;51.224;8.482;2024-03-17T13:03:07;10.10;76.70
32506;DHT22;18955;51.224;8.482;2024-03-17T13:05:34;10.00;77.50
32506;DHT22;18955;51.224;8.482;2024-03-17T13:08:01;9.90;77.90
32506;DHT22;18955;51.224;8.482;2024-03-17T13:10:29;9.70;78.20
32506;DHT22;18955;51.224;8.482;2024-03-17T13:15:33;10.40;76.00
32506;DHT22;18955;51.224;8.482;2024-03-17T13:18:05;10.30;76.50
32506;DHT22;18955;51.224;8.482;2024-03-17T13:20:32;10.10;77.10
32506;DHT22;18955;51.224;8.482;2024-03-17T13:22:58;10.00;77.70
32506;DHT22;18955;51.224;8.482;2024-03-17T13:25:27;9.90;78.10
32506;DHT22;18955;51.224;8.482;2024-03-17T13:27:56;9.90;78.30
32506;DHT22;18955;51.224;8.482;2024-03-17T13:30:23;10.50;76.40
32506;DHT22;18955;51.224;8.482;2024-03-17T13:32:50;10.40;76.20
32506;DHT22;18955;51.224;8.482;2024-03-17T13:35:23;10.30;76.90
32506;DHT22;18955;51.224;8.482;2024-03-17T13:37:50;10.10;77.50
32506;DHT22;18955;51.224;8.482;2024-03-17T13:40:19;10.00;78.00
32506;DHT22;18955;51.224;8.482;2024-03-17T13:42:46;9.90;78.40
32506;DHT22;18955;51.224;8.482;2024-03-17T13:45:13;10.20;77.70
32506;DHT22;18955;51.224;8.482;2024-03-17T13:47:40;10.60;76.10
32506;DHT22;18955;51.224;8.482;2024-03-17T13:50:07;10.50;76.40
32506;DHT22;18955;51.224;8.482;2024-03-17T13:52:42;10.30;77.20
32506;DHT22;18955;51.224;8.482;2024-03-17T13:55:20;10.20;77.70
32506;DHT22;18955;51.224;8.482;2024-03-17T13:57:50;10.10;78.20
32506;DHT22;18955;51.224;8.482;2024-03-17T14:00:17;10.00;78.60
32506;DHT22;18955;51.224;8.482;2024-03-17T14:02:46;10.50;77.10
32506;DHT22;18955;51.224;8.482;2024-03-17T14:05:14;10.70;76.30
32506;DHT22;18955;51.224;8.482;2024-03-17T14:07:41;10.50;76.70
32506;DHT22;18955;51.224;8.482;2024-03-17T14:10:09;10.40;77.40
32506;DHT22;18955;51.224;8.482;2024-03-17T14:12:36;10.30;77.90
32506;DHT22;18955;51.224;8.482;2024-03-17T14:15:06;10.20;78.10
32506;DHT22;18955;51.224;8.482;2024-03-17T14:17:33;10.10;78.50
32506;DHT22;18955;51.224;8.482;2024-03-17T14:19:59;10.60;77.10
32506;DHT22;18955;51.224;8.482;2024-03-17T14:22:26;10.80;76.20
32506;DHT22;18955;51.224;8.482;2024-03-17T14:24:52;10.60;76.60
32506;DHT22;18955;51.224;8.482;2024-03-17T14:27:18;10.50;77.70
32506;DHT22;18955;51.224;8.482;2024-03-17T14:29:44;10.40;77.80
32506;DHT22;18955;51.224;8.482;2024-03-17T14:32:11;10.30;78.10
32506;DHT22;18955;51.224;8.482;2024-03-17T14:34:38;10.20;78.40
32506;DHT22;18955;51.224;8.482;2024-03-17T14:37:04;10.40;78.00
32506;DHT22;18955;51.224;8.482;2024-03-17T14:39:31;10.80;76.80
32506;DHT22;18955;51.224;8.482;2024-03-17T14:41:57;10.80;76.40
32506;DHT22;18955;51.224;8.482;2024-03-17T14:44:24;10.60;77.20
32506;DHT22;18955;51.224;8.482;2024-03-17T14:46:50;10.50;77.70
32506;DHT22;18955;51.224;8.482;2024-03-17T14:49:20;10.40;78.20
32506;DHT22;18955;51.224;8.482;2024-03-17T14:51:47;10.30;78.50
32506;DHT22;18955;51.224;8.482;2024-03-17T14:54:16;10.30;78.70
32506;DHT22;18955;51.224;8.482;2024-03-17T14:56:43;10.80;76.80
32506;DHT22;18955;51.224;8.482;2024-03-17T14:59:10;10.90;76.30
32506;DHT22;18955;51.224;8.482;2024-03-17T15:01:38;10.70;76.90
32506;DHT22;18955;51.224;8.482;2024-03-17T15:04:04;10.60;77.50
32506;DHT22;18955;51.224;8.482;2024-03-17T15:06:30;10.50;78.10
32506;DHT22;18955;51.224;8.482;2024-03-17T15:08:57;10.40;78.30
32506;DHT22;18955;51.224;8.482;2024-03-17T15:11:23;10.30;78.60
32506;DHT22;18955;51.224;8.482;2024-03-17T15:13:49;10.50;78.20
32506;DHT22;18955;51.224;8.482;2024-03-17T15:16:15;10.90;76.30
32506;DHT22;18955;51.224;8.482;2024-03-17T15:18:42;10.90;76.70
32506;DHT22;18955;51.224;8.482;2024-03-17T15:21:09;10.80;76.90
32506;DHT22;18955;51.224;8.482;2024-03-17T15:23:35;10.60;77.40
32506;DHT22;18955;51.224;8.482;2024-03-17T15:26:05;10.50;78.00
32506;DHT22;18955;51.224;8.482;2024-03-17T15:28:42;10.40;78.40
32506;DHT22;18955;51.224;8.482;2024-03-17T15:31:09;10.40;78.80
32506;DHT22;18955;51.224;8.482;2024-03-17T15:33:37;10.70;77.60
32506;DHT22;18955;51.224;8.482;2024-03-17T15:36:04;11.00;76.30
32506;DHT22;18955;51.224;8.482;2024-03-17T15:38:31;10.90;76.60
32506;DHT22;18955;51.224;8.482;2024-03-17T15:41:06;10.80;77.30
32506;DHT22;18955;51.224;8.482;2024-03-17T15:43:33;10.70;77.80
32506;DHT22;18955;51.224;8.482;2024-03-17T15:46:02;10.50;78.20
32506;DHT22;18955;51.224;8.482;2024-03-17T15:48:28;10.50;78.60
32506;DHT22;18955;51.224;8.482;2024-03-17T15:50:56;10.40;79.00
32506;DHT22;18955;51.224;8.482;2024-03-17T15:53:22;10.90;77.30
32506;DHT22;18955;51.224;8.482;2024-03-17T15:55:58;11.00;76.10
32506;DHT22;18955;51.224;8.482;2024-03-17T15:58:26;10.90;76.50
32506;DHT22;18955;51.224;8.482;2024-03-17T16:00:54;10.80;77.40
32506;DHT22;18955;51.224;8.482;2024-03-17T16:03:21;10.60;77.70
32506;DHT22;18955;51.224;8.482;2024-03-17T16:05:52;10.60;78.30
32506;DHT22;18955;51.224;8.482;2024-03-17T16:08:20;10.50;78.70